Time;durP1;ratioP1;P1;durP2;ratioP2;P2;SDS_P1;SDS_P2;PMS_P1;PMS_P2;Temp;Humidity;BMP_temperature;BMP_pressure;BME280_temperature;BME280_humidity;BME280_pressure;Samples;Min_cycle;Max_cycle;Signal;HPM_P1;HPM_P2
2021/01/18 00:00:13;;;;;;;45.13;25.50;;;;;;;-1.35;53.49;99904.22;5017952;28;20068;-75
2021/01/18 00:02:39;;;;;;;44.30;24.97;;;;;;;-1.70;53.21;99852.78;5012404;28;20041;-75
2021/01/18 00:05:07;;;;;;;40.97;24.33;;;;;;;-2.05;53.30;99810.94;5017104;28;20060;-76
2021/01/18 00:07:44;;;;;;;39.33;23.57;;;;;;;-1.47;53.45;99923.91;5017360;28;20044;-75
2021/01/18 00:10:14;;;;;;;36.27;20.23;;;;;;;-1.45;53.43;99916.06;5017840;28;20025;-75
2021/01/18 00:12:43;;;;;;;35.40;19.53;;;;;;;-1.77;53.61;99873.97;5017725;28;20026;-75
2021/01/18 00:15:09;;;;;;;37.53;21.47;;;;;;;-1.76;53.28;99891.16;5000231;28;20466;-75
2021/01/18 00:17:34;;;;;;;30.60;19.10;;;;;;;-1.82;53.04;99901.88;5018249;28;20050;-75
2021/01/18 00:20:00;;;;;;;29.70;18.63;;;;;;;-1.78;53.67;99909.38;5017715;28;20034;-74
2021/01/18 00:22:25;;;;;;;30.47;18.70;;;;;;;-1.85;53.72;99902.06;5017593;28;20037;-75
2021/01/18 00:24:50;;;;;;;30.40;16.73;;;;;;;-2.01;53.20;99874.50;5017650;28;20026;-75
2021/01/18 00:27:16;;;;;;;30.00;18.23;;;;;;;-1.84;53.82;99909.72;4999967;28;20025;-75
2021/01/18 00:29:41;;;;;;;30.77;19.57;;;;;;;-2.05;53.87;99888.53;5017295;28;20029;-75
2021/01/18 00:32:07;;;;;;;31.27;18.57;;;;;;;-2.20;54.05;99886.84;5017271;28;20420;-75
2021/01/18 00:34:32;;;;;;;28.37;18.13;;;;;;;-1.98;53.83;99931.25;5017365;28;20040;-75
2021/01/18 00:36:57;;;;;;;30.87;17.53;;;;;;;-2.07;53.90;99907.66;5017299;28;20080;-75
2021/01/18 00:39:23;;;;;;;28.80;16.77;;;;;;;-2.14;53.97;99922.69;5017008;28;20052;-75
2021/01/18 00:41:48;;;;;;;29.10;16.80;;;;;;;-1.99;53.54;99939.91;5008194;28;20045;-75
2021/01/18 00:44:13;;;;;;;26.80;15.43;;;;;;;-2.03;53.94;99933.25;5017652;28;20033;-75
2021/01/18 00:46:39;;;;;;;27.60;15.80;;;;;;;-2.04;53.89;99935.94;5017118;28;20056;-75
2021/01/18 00:49:04;;;;;;;27.07;14.90;;;;;;;-2.11;53.94;99932.88;4999681;28;20129;-75
2021/01/18 00:51:39;;;;;;;27.10;15.43;;;;;;;-2.11;53.54;99945.81;5017136;28;20022;-76
2021/01/18 00:54:05;;;;;;;27.90;15.67;;;;;;;-2.11;53.51;99945.81;5017354;28;20034;-75
2021/01/18 00:56:31;;;;;;;27.63;15.77;;;;;;;-2.73;53.88;99859.69;5016801;28;20018;-75
2021/01/18 00:58:56;;;;;;;28.20;16.10;;;;;;;-2.55;54.00;99896.59;5016977;28;20057;-75
2021/01/18 01:01:22;;;;;;;29.03;15.37;;;;;;;-2.26;53.68;99939.72;5016944;28;20037;-76
2021/01/18 01:03:47;;;;;;;32.70;17.30;;;;;;;-2.33;53.37;99916.88;5016800;28;20034;-75
2021/01/18 01:06:13;;;;;;;25.90;15.93;;;;;;;-2.52;53.94;99886.06;5017128;28;20030;-76
2021/01/18 01:08:39;;;;;;;29.50;17.27;;;;;;;-2.53;54.11;99899.94;5016784;28;20022;-77
2021/01/18 01:11:04;;;;;;;28.17;16.40;;;;;;;-2.51;53.72;99907.59;5016818;28;20040;-76
2021/01/18 01:13:29;;;;;;;27.07;16.53;;;;;;;-2.37;53.84;99938.66;5016956;28;20029;-75
2021/01/18 01:15:57;;;;;;;25.20;15.60;;;;;;;-2.61;53.73;99900.34;5016936;28;20032;-75
2021/01/18 01:18:22;;;;;;;24.30;16.00;;;;;;;-2.76;54.04;99880.53;5016750;28;20082;-75
2021/01/18 01:20:47;;;;;;;26.87;16.27;;;;;;;-2.32;53.52;99954.75;5017014;28;20379;-76
2021/01/18 01:23:13;;;;;;;31.17;17.37;;;;;;;-2.42;53.90;99948.44;5016795;28;20026;-76
2021/01/18 01:25:38;;;;;;;29.50;17.07;;;;;;;-2.62;53.82;99921.13;5016708;28;20033;-76
2021/01/18 01:28:04;;;;;;;26.07;15.00;;;;;;;-2.63;53.64;99940.97;4999415;28;20032;-75
2021/01/18 01:30:29;;;;;;;29.40;16.13;;;;;;;-2.80;53.87;99911.81;5016434;28;20355;-75
2021/01/18 01:32:55;;;;;;;25.33;15.07;;;;;;;-2.70;53.65;99915.53;5016603;28;20026;-76
2021/01/18 01:35:25;;;;;;;23.93;15.20;;;;;;;-2.54;53.94;99942.19;5016378;28;20022;-76
2021/01/18 01:37:51;;;;;;;28.07;16.77;;;;;;;-2.39;53.78;99956.03;5018633;28;20057;-75
2021/01/18 01:40:17;;;;;;;27.50;15.67;;;;;;;-2.47;53.77;99951.28;5023640;23;20061;-76
2021/01/18 01:42:44;;;;;;;32.57;16.83;;;;;;;-2.50;54.04;99958.38;5035977;28;20380;-75
2021/01/18 01:45:12;;;;;;;31.57;17.53;;;;;;;-2.49;54.17;99966.03;5018583;28;20355;-75
2021/01/18 01:47:43;;;;;;;30.67;17.17;;;;;;;-2.74;54.15;99917.47;5036081;28;20022;-76
2021/01/18 01:50:22;;;;;;;29.30;17.00;;;;;;;-2.59;54.10;99950.22;5036133;28;20095;-75
2021/01/18 01:53:17;;;;;;;34.07;16.80;;;;;;;-2.46;54.18;99957.28;5036146;28;20029;-75
2021/01/18 01:55:43;;;;;;;31.50;18.33;;;;;;;-2.41;53.92;99958.69;5034786;28;20033;-75
2021/01/18 01:58:09;;;;;;;35.37;19.57;;;;;;;-2.47;53.99;99935.78;5035974;28;20088;-75
2021/01/18 02:00:39;;;;;;;31.00;18.97;;;;;;;-3.13;53.54;99840.38;5035734;28;20021;-76
2021/01/18 02:03:17;;;;;;;37.93;20.93;;;;;;;-2.44;54.23;99958.88;5018291;28;20025;-75
2021/01/18 02:05:43;;;;;;;40.23;21.80;;;;;;;-2.69;54.36;99915.47;5035614;28;20086;-76
2021/01/18 02:08:09;;;;;;;40.67;23.80;;;;;;;-2.48;53.67;99956.53;5035820;28;20386;-76
2021/01/18 02:10:36;;;;;;;39.80;22.83;;;;;;;-2.44;54.03;99956.28;5035632;28;20032;-75
2021/01/18 02:13:17;;;;;;;40.43;21.30;;;;;;;-2.43;53.50;99957.13;5035326;28;20029;-75
2021/01/18 02:15:50;;;;;;;45.80;24.77;;;;;;;-2.90;53.40;99878.72;5035311;28;20340;-75
2021/01/18 02:18:31;;;;;;;40.50;23.03;;;;;;;-2.46;53.93;99965.03;5035437;28;20034;-75
2021/01/18 02:20:59;;;;;;;34.63;19.97;;;;;;;-2.48;53.90;99964.28;5035416;28;20033;-75
2021/01/18 02:24:12;;;;;;;34.53;20.13;;;;;;;-2.67;53.76;99933.47;5035113;28;20022;-75
2021/01/18 02:26:59;;;;;;;32.67;19.57;;;;;;;-2.52;53.77;99971.38;5028422;28;20037;-75
2021/01/18 02:29:37;;;;;;;33.23;18.70;;;;;;;-2.53;53.54;99971.47;5017897;28;20060;-76
2021/01/18 02:32:14;;;;;;;29.20;17.33;;;;;;;-2.89;54.33;99933.81;5034059;28;20427;-75
2021/01/18 02:35:02;;;;;;;28.47;15.70;;;;;;;-2.61;53.86;99983.06;5033974;28;20576;-75
2021/01/18 02:37:56;;;;;;;27.17;16.10;;;;;;;-2.64;53.47;99988.41;5035230;28;20408;-75
2021/01/18 02:40:33;;;;;;;31.97;17.03;;;;;;;-2.66;53.44;99989.41;5034800;28;20052;-76
2021/01/18 02:43:03;;;;;;;27.93;16.60;;;;;;;-2.80;53.79;99973.81;5034129;28;20076;-75
2021/01/18 02:45:31;;;;;;;28.63;16.63;;;;;;;-2.81;53.69;99982.50;5034842;28;20052;-76
2021/01/18 02:47:57;;;;;;;30.53;16.80;;;;;;;-2.73;53.62;99985.50;5034914;28;20026;-76
2021/01/18 02:50:23;;;;;;;31.23;15.83;;;;;;;-2.94;53.81;99948.72;5034021;28;20450;-75
2021/01/18 02:52:49;;;;;;;48.67;24.13;;;;;;;-3.03;53.60;99956.94;5034900;28;20028;-75
2021/01/18 02:55:18;;;;;;;42.90;21.33;;;;;;;-3.24;53.28;99923.59;5035503;28;20090;-75
2021/01/18 02:57:47;;;;;;;32.33;17.13;;;;;;;-2.90;53.86;99994.16;5035693;28;20033;-74
2021/01/18 03:00:17;;;;;;;31.50;16.90;;;;;;;-3.09;54.06;99963.28;5035347;28;20033;-76
2021/01/18 03:02:49;;;;;;;30.83;17.57;;;;;;;-3.36;53.34;99918.25;5033987;28;20116;-75
2021/01/18 03:05:24;;;;;;;33.20;17.33;;;;;;;-2.89;53.84;99990.66;5041411;28;20029;-75
2021/01/18 03:08:01;;;;;;;37.07;20.40;;;;;;;-3.05;53.83;99979.44;5042300;28;20029;-76
2021/01/18 03:10:32;;;;;;;35.80;18.83;;;;;;;-3.40;53.72;99922.75;5042970;28;20332;-76
2021/01/18 03:13:03;;;;;;;37.83;20.40;;;;;;;-2.94;53.91;99992.66;5043079;28;20087;-76
2021/01/18 03:15:36;;;;;;;45.80;22.13;;;;;;;-2.93;53.60;99995.16;5041702;28;20033;-76
2021/01/18 03:18:02;;;;;;;40.23;21.67;;;;;;;-2.94;54.00;99995.22;5042235;28;20029;-76
2021/01/18 03:20:30;;;;;;;43.77;21.13;;;;;;;-2.90;53.97;99997.56;5024547;28;20037;-75
2021/01/18 03:23:07;;;;;;;41.60;23.00;;;;;;;-2.96;53.64;99984.97;5042834;28;20486;-77
2021/01/18 03:25:44;;;;;;;39.17;19.90;;;;;;;-2.95;53.76;99983.22;5042293;28;20505;-76
2021/01/18 03:28:10;;;;;;;42.17;23.23;;;;;;;-3.08;53.76;99970.09;5042363;28;20026;-75
2021/01/18 03:30:35;;;;;;;50.00;23.87;;;;;;;-2.92;53.70;100001.16;5042195;28;20140;-76
2021/01/18 03:33:00;;;;;;;45.77;24.40;;;;;;;-2.97;53.62;99998.81;5042203;28;20458;-75
2021/01/18 03:35:28;;;;;;;46.87;25.33;;;;;;;-3.32;53.98;99948.16;5041846;28;20026;-76
2021/01/18 03:37:56;;;;;;;48.53;24.10;;;;;;;-3.05;53.55;100000.09;5041870;28;20061;-75
2021/01/18 03:40:22;;;;;;;35.73;20.80;;;;;;;-3.05;54.00;99997.50;5041782;28;20112;-76
2021/01/18 03:43:07;;;;;;;35.73;20.90;;;;;;;-3.00;53.48;99990.34;5041909;28;20025;-75
2021/01/18 03:45:38;;;;;;;38.00;21.73;;;;;;;-3.04;54.02;99994.03;5041590;28;20148;-76
2021/01/18 03:48:05;;;;;;;38.57;21.10;;;;;;;-3.59;53.83;99914.31;5024309;28;20098;-75
2021/01/18 03:50:30;;;;;;;36.10;21.10;;;;;;;-3.14;53.97;99995.41;5040371;28;20033;-77
2021/01/18 03:52:56;;;;;;;39.43;22.67;;;;;;;-3.07;53.42;99995.00;5041249;28;20037;-77
2021/01/18 03:55:22;;;;;;;39.93;22.43;;;;;;;-3.08;53.81;100000.25;5041031;28;20116;-77
2021/01/18 03:57:52;;;;;;;38.23;22.10;;;;;;;-3.09;53.58;100002.00;5041408;28;20021;-76
2021/01/18 04:00:21;;;;;;;36.53;20.10;;;;;;;-3.66;53.38;99913.78;5040931;28;20324;-76
2021/01/18 04:02:47;;;;;;;39.53;20.83;;;;;;;-3.85;53.40;99905.28;5041169;28;20033;-76
2021/01/18 04:05:14;;;;;;;34.23;19.47;;;;;;;-3.48;53.54;99999.75;5040769;28;20131;-77
2021/01/18 04:07:42;;;;;;;39.07;20.20;;;;;;;-4.17;54.12;99881.97;5041070;28;20021;-76
2021/01/18 04:10:09;;;;;;;35.23;19.03;;;;;;;-3.46;53.90;100000.50;5040884;28;20033;-76
2021/01/18 04:12:39;;;;;;;35.70;20.43;;;;;;;-3.31;53.79;100022.13;5040911;28;20092;-75
2021/01/18 04:15:05;;;;;;;33.47;18.30;;;;;;;-3.81;53.49;99945.50;5039913;28;20029;-75
2021/01/18 04:17:30;;;;;;;36.40;19.70;;;;;;;-3.75;53.59;99968.41;5040775;28;20021;-76
2021/01/18 04:19:56;;;;;;;40.80;22.20;;;;;;;-4.17;53.93;99896.59;5039836;28;20072;-76
2021/01/18 04:22:21;;;;;;;40.07;21.83;;;;;;;-4.12;53.57;99904.94;5040085;28;20072;-75
2021/01/18 04:24:47;;;;;;;40.20;22.17;;;;;;;-3.32;53.53;100052.25;5020177;28;20033;-76
2021/01/18 04:27:12;;;;;;;41.77;21.43;;;;;;;-3.63;53.79;99997.94;5037564;28;20024;-75
2021/01/18 04:29:37;;;;;;;35.30;21.03;;;;;;;-3.47;54.15;100026.41;5036992;28;20033;-76
2021/01/18 04:32:03;;;;;;;34.90;20.53;;;;;;;-3.36;53.72;100044.75;5019716;28;20072;-76
2021/01/18 04:34:29;;;;;;;48.83;25.13;;;;;;;-3.42;53.70;100027.84;5037039;28;20033;-76
2021/01/18 04:36:54;;;;;;;72.50;33.67;;;;;;;-3.76;53.78;99971.91;5019467;28;20029;-76
2021/01/18 04:39:20;;;;;;;64.87;28.90;;;;;;;-3.49;53.45;100033.38;5037167;28;20029;-76
2021/01/18 04:41:46;;;;;;;42.50;22.87;;;;;;;-3.33;53.97;100060.09;5036967;28;20332;-75
2021/01/18 04:44:14;;;;;;;44.77;21.93;;;;;;;-3.45;53.40;100038.31;5036884;28;20108;-76
2021/01/18 04:46:42;;;;;;;45.17;23.20;;;;;;;-3.36;53.63;100060.25;5035813;28;20063;-75
2021/01/18 04:49:09;;;;;;;46.30;24.97;;;;;;;-3.39;53.44;100062.97;5037020;28;20025;-76
2021/01/18 04:51:50;;;;;;;49.90;24.47;;;;;;;-3.42;53.90;100063.13;5019303;28;20170;-76
2021/01/18 04:54:18;;;;;;;50.63;28.57;;;;;;;-3.37;53.58;100067.16;5036916;28;20455;-75
2021/01/18 04:57:24;;;;;;;47.13;27.17;;;;;;;-3.38;53.50;100068.06;5036576;28;20104;-76
2021/01/18 04:59:55;;;;;;;57.57;29.87;;;;;;;-3.83;53.85;100001.50;5036808;28;20065;-76
2021/01/18 05:02:22;;;;;;;52.97;33.03;;;;;;;-3.52;53.85;100055.84;5036743;28;20025;-76
2021/01/18 05:04:52;;;;;;;53.13;31.37;;;;;;;-3.68;53.32;100036.06;5037682;28;20025;-76
2021/01/18 05:07:20;;;;;;;51.47;30.20;;;;;;;-3.34;54.01;100082.50;5019484;28;20036;-76
2021/01/18 05:09:55;;;;;;;49.77;29.27;;;;;;;-3.75;53.25;100007.09;5018866;28;20052;-75
2021/01/18 05:12:21;;;;;;;44.70;27.23;;;;;;;-3.33;53.43;100078.16;5036550;28;20388;-76
2021/01/18 05:14:48;;;;;;;52.23;28.27;;;;;;;-3.30;53.65;100073.69;5018819;28;20144;-75
2021/01/18 05:17:29;;;;;;;43.30;25.93;;;;;;;-3.19;53.23;100086.03;5035313;28;20030;-76
2021/01/18 05:19:55;;;;;;;35.28;21.40;;;;;;;-3.08;53.57;100082.91;5043133;23;20045;-75
2021/01/18 05:22:20;;;;;;;40.53;22.37;;;;;;;-2.97;53.52;100070.31;5036419;28;20040;-76
2021/01/18 05:24:46;;;;;;;57.83;28.20;;;;;;;-2.94;53.69;100044.31;5036412;28;20030;-76
2021/01/18 05:27:11;;;;;;;45.87;24.77;;;;;;;-3.17;53.16;100005.91;5035978;28;20025;-76
2021/01/18 05:29:38;;;;;;;43.43;26.03;;;;;;;-3.05;53.06;99995.78;5036174;28;20029;-76
2021/01/18 05:32:19;;;;;;;51.97;27.70;;;;;;;-3.10;52.73;100008.09;5036179;28;20059;-76
2021/01/18 05:34:44;;;;;;;51.83;29.03;;;;;;;-2.91;52.72;100026.91;5038317;28;20037;-76
2021/01/18 05:37:09;;;;;;;65.87;34.83;;;;;;;-2.83;52.50;100057.50;5036847;28;20344;-76
2021/01/18 05:39:35;;;;;;;79.83;41.63;;;;;;;-2.68;52.64;100086.88;5019143;28;20176;-77
2021/01/18 05:42:00;;;;;;;77.23;44.93;;;;;;;-2.98;52.61;100102.19;5039662;28;20036;-78
2021/01/18 05:44:37;;;;;;;82.50;45.13;;;;;;;-3.10;52.35;100087.31;5033982;23;20034;-79
2021/01/18 05:47:05;;;;;;;85.00;46.13;;;;;;;-3.07;53.11;100084.59;5036244;23;20041;-78
2021/01/18 05:49:45;;;;;;;98.90;53.97;;;;;;;-3.11;52.78;100088.22;5043003;28;20025;-78
2021/01/18 05:52:31;;;;;;;104.37;51.80;;;;;;;-3.16;52.49;100085.06;5042987;28;20025;-81
2021/01/18 05:55:17;;;;;;;91.53;47.70;;;;;;;-3.20;52.72;100090.38;5018784;23;20045;-79
2021/01/18 05:58:02;;;;;;;109.53;55.87;;;;;;;-3.72;53.21;100000.97;5004329;28;20428;-77
2021/01/18 06:00:41;;;;;;;117.30;62.70;;;;;;;-3.32;52.79;100077.25;5002839;28;20403;-77
2021/01/18 06:03:11;;;;;;;121.90;64.83;;;;;;;-3.41;52.59;100075.97;5018812;28;20386;-78
2021/01/18 06:05:39;;;;;;;119.70;64.53;;;;;;;-4.01;53.20;99995.50;5001464;28;20025;-78
2021/01/18 06:08:18;;;;;;;135.40;69.37;;;;;;;-3.30;53.09;100103.81;5018795;28;20161;-77
2021/01/18 06:10:46;;;;;;;135.03;66.43;;;;;;;-4.13;52.50;99984.94;5001293;28;20096;-76
2021/01/18 06:13:34;;;;;;;140.93;72.87;;;;;;;-3.79;53.10;100052.03;5018692;28;20026;-77
2021/01/18 06:16:11;;;;;;;136.83;69.20;;;;;;;-3.66;52.88;100078.09;5002925;28;20036;-77
2021/01/18 06:18:39;;;;;;;143.80;77.73;;;;;;;-3.58;53.18;100092.28;5037212;23;20054;-76
2021/01/18 06:21:07;;;;;;;147.43;79.53;;;;;;;-3.33;52.72;100115.13;5030052;28;20351;-79
2021/01/18 06:23:33;;;;;;;170.67;87.67;;;;;;;-3.30;52.98;100121.91;5041460;28;20029;-79
2021/01/18 06:25:59;;;;;;;155.00;80.37;;;;;;;-3.36;53.00;100123.03;5040748;28;20517;-79
2021/01/18 06:28:32;;;;;;;152.80;78.53;;;;;;;-3.31;52.44;100133.13;5040122;28;20037;-77
2021/01/18 06:31:06;;;;;;;151.90;79.17;;;;;;;-3.64;52.90;100069.38;5039992;28;20040;-78
2021/01/18 06:33:40;;;;;;;147.47;81.00;;;;;;;-3.30;52.68;100125.31;5046319;23;20036;-76
2021/01/18 06:36:16;;;;;;;157.77;85.63;;;;;;;-3.12;52.68;100136.47;5025439;28;20036;-78
2021/01/18 06:38:50;;;;;;;189.83;101.50;;;;;;;-3.10;52.72;100138.97;5047332;28;20032;-77
2021/01/18 06:43:46;;;;;;;192.90;104.65;;;;;;;-3.29;52.66;100105.50;5047031;23;20049;-78
2021/01/18 06:46:17;;;;;;;214.77;114.80;;;;;;;-3.33;52.93;100093.66;5018093;28;20071;-78
2021/01/18 06:48:44;;;;;;;166.07;95.63;;;;;;;-3.24;52.59;100104.34;4968259;28;20042;-75
2021/01/18 06:51:14;;;;;;;169.87;98.60;;;;;;;-3.10;52.61;100119.16;5015981;28;20030;-76
2021/01/18 06:53:44;;;;;;;168.90;95.13;;;;;;;-3.00;52.64;100127.25;5034708;28;20025;-76
2021/01/18 06:56:16;;;;;;;165.13;92.80;;;;;;;-3.05;53.01;100135.25;5039047;28;20025;-78
2021/01/18 06:59:02;;;;;;;141.68;81.25;;;;;;;-3.07;53.13;100139.66;5040075;28;20431;-77
2021/01/18 07:01:35;;;;;;;139.53;80.47;;;;;;;-2.99;52.88;100147.84;5018578;28;20164;-76
2021/01/18 07:04:13;;;;;;;120.93;68.23;;;;;;;-2.89;53.03;100136.16;5019906;28;20320;-79
2021/01/18 07:06:40;;;;;;;101.10;57.90;;;;;;;-2.99;52.71;100123.78;5036854;28;20059;-78
2021/01/18 07:09:17;;;;;;;86.47;49.77;;;;;;;-2.89;52.95;100132.75;5039653;28;20029;-76
2021/01/18 07:11:43;;;;;;;89.80;48.27;;;;;;;-2.71;52.84;100146.47;5024784;28;20344;-76
2021/01/18 07:14:12;;;;;;;89.00;47.97;;;;;;;-2.69;52.76;100150.66;5035733;28;20439;-75
2021/01/18 07:16:42;;;;;;;100.90;52.33;;;;;;;-2.65;52.62;100153.91;5032697;28;20041;-76
2021/01/18 07:19:08;;;;;;;92.13;52.10;;;;;;;-3.98;52.38;99977.28;5021885;23;20185;-76
2021/01/18 07:21:59;;;;;;;91.30;49.27;;;;;;;-2.47;52.66;100157.28;4990136;28;20034;-76
2021/01/18 07:24:29;;;;;;;85.97;48.90;;;;;;;-2.57;52.65;100151.75;4984410;28;20037;-78
2021/01/18 07:27:06;;;;;;;75.43;42.93;;;;;;;-2.49;52.71;100157.34;5011329;28;20055;-76
2021/01/18 07:29:32;;;;;;;65.30;38.57;;;;;;;-2.97;52.50;100055.66;5011600;28;20052;-78
2021/01/18 07:31:59;;;;;;;66.57;40.33;;;;;;;-2.21;52.74;100172.28;5018291;28;20092;-77
2021/01/18 07:37:16;;;;;;;55.13;31.73;;;;;;;-3.21;52.53;99974.25;4790928;23;20072;-79
2021/01/18 07:39:45;;;;;;;51.77;31.10;;;;;;;-2.88;51.74;100028.50;5045011;23;20405;-79
2021/01/18 07:42:56;;;;;;;47.03;26.00;;;;;;;-1.90;51.98;100184.38;5052320;23;20034;-78
2021/01/18 07:45:24;;;;;;;50.83;28.30;;;;;;;-1.82;52.12;100176.22;5038409;23;20045;-77
2021/01/18 07:53:17;;;;;;;42.57;22.77;;;;;;;-1.70;51.96;100172.94;5052664;23;20045;-78
2021/01/18 07:55:45;;;;;;;38.10;20.50;;;;;;;-1.67;52.02;100181.38;5019057;28;20030;-78
2021/01/18 07:58:28;;;;;;;30.67;17.40;;;;;;;-1.97;52.07;100126.97;5034935;23;20161;-79
2021/01/18 08:01:07;;;;;;;39.40;21.70;;;;;;;-1.87;52.39;100121.28;5053421;23;20060;-77
2021/01/18 08:03:33;;;;;;;30.13;15.83;;;;;;;-3.43;51.70;99870.44;5051858;23;20064;-76
2021/01/18 08:06:05;;;;;;;27.87;16.33;;;;;;;-1.51;51.07;100183.09;5033585;28;20032;-78
2021/01/18 08:08:31;;;;;;;27.17;15.18;;;;;;;-1.45;51.64;100175.84;5042152;28;20029;-77
2021/01/18 08:11:12;;;;;;;23.67;15.50;;;;;;;-1.44;51.20;100174.94;5028242;23;20045;-76
2021/01/18 08:13:51;;;;;;;23.60;13.88;;;;;;;-1.50;51.00;100170.06;5047121;23;20447;-76
2021/01/18 08:16:39;;;;;;;20.73;13.27;;;;;;;-1.45;50.18;100188.81;4998708;28;20048;-77
2021/01/18 08:19:17;;;;;;;23.40;13.67;;;;;;;-1.42;50.54;100185.22;5013089;23;20050;-77
2021/01/18 08:21:55;;;;;;;22.30;13.40;;;;;;;-1.29;50.58;100181.84;5041593;23;20056;-78
2021/01/18 08:24:26;;;;;;;22.70;13.13;;;;;;;-1.21;49.73;100181.41;5037669;28;20048;-77
2021/01/18 08:27:07;;;;;;;22.65;12.55;;;;;;;-1.25;50.13;100181.66;5054825;23;20053;-76
2021/01/18 08:29:56;;;;;;;24.87;14.50;;;;;;;-1.23;50.22;100187.59;5038222;28;20093;-79
2021/01/18 08:32:38;;;;;;;22.37;13.77;;;;;;;-1.17;50.41;100189.81;5057856;23;20375;-76
2021/01/18 08:38:22;;;;;;;24.47;14.40;;;;;;;-0.93;49.74;100188.41;3074422;23;20049;-77
2021/01/18 08:40:51;;;;;;;20.07;11.50;;;;;;;-0.87;50.28;100187.22;5048834;28;20040;-76
2021/01/18 08:43:20;;;;;;;18.03;11.50;;;;;;;-0.79;49.54;100188.44;5048269;28;20412;-76
2021/01/18 08:45:55;;;;;;;23.30;15.00;;;;;;;-0.70;49.89;100189.69;5018916;28;20033;-76
2021/01/18 08:48:25;;;;;;;18.10;11.63;;;;;;;-0.71;49.64;100188.00;5046322;23;20057;-76
2021/01/18 08:50:59;;;;;;;22.03;13.40;;;;;;;-1.06;48.89;100138.22;5036662;28;20029;-79
2021/01/18 08:53:29;;;;;;;26.33;15.57;;;;;;;-0.71;48.94;100182.81;5057880;23;20049;-79
2021/01/18 08:58:47;;;;;;;22.23;14.40;;;;;;;-0.95;49.45;100156.56;5068253;23;20065;-77
2021/01/18 09:01:21;;;;;;;21.13;13.40;;;;;;;-0.80;48.90;100150.47;5050009;28;20221;-76
2021/01/18 09:03:56;;;;;;;19.97;12.03;;;;;;;-1.14;48.41;100093.78;5050256;28;20031;-77
2021/01/18 09:06:22;;;;;;;23.47;13.27;;;;;;;-3.04;49.54;99831.31;5037426;23;20076;-76
2021/01/18 09:08:47;;;;;;;21.27;12.30;;;;;;;-0.68;48.87;100173.09;5038030;28;20427;-76
2021/01/18 09:11:13;;;;;;;19.73;12.80;;;;;;;-0.84;48.65;100141.22;5041100;23;20107;-76
2021/01/18 09:13:39;;;;;;;30.07;17.27;;;;;;;-0.71;48.64;100173.28;5022943;28;20124;-75
2021/01/18 09:16:10;;;;;;;25.30;13.97;;;;;;;-0.63;48.30;100166.81;5027833;28;20036;-77
2021/01/18 09:18:37;;;;;;;19.13;12.83;;;;;;;-0.61;48.61;100168.38;5033744;28;20030;-78
2021/01/18 09:23:52;;;;;;;22.67;14.67;;;;;;;-0.57;48.36;100130.13;5059018;23;20134;-80
2021/01/18 09:29:02;;;;;;;24.05;14.38;;;;;;;-0.37;48.06;100125.41;5055447;23;20058;-78
2021/01/18 09:31:28;;;;;;;20.17;12.67;;;;;;;-1.82;48.09;99876.81;5056727;23;20057;-78
2021/01/18 09:33:57;;;;;;;21.27;12.43;;;;;;;-2.32;47.88;99778.91;5049191;23;20049;-79
2021/01/18 09:38:48;;;;;;;19.65;13.27;;;;;;;-0.18;47.61;100091.34;5072671;23;20498;-78
2021/01/18 09:44:05;;;;;;;18.60;12.70;;;;;;;0.32;46.57;100145.28;3107496;23;20059;-78
2021/01/18 09:46:31;;;;;;;23.07;12.77;;;;;;;0.47;46.36;100148.66;5070314;23;20045;-82
2021/01/18 09:48:57;;;;;;;19.27;12.93;;;;;;;0.51;46.31;100141.50;5059185;23;21144;-79
2021/01/18 09:54:02;;;;;;;20.73;12.40;;;;;;;0.61;45.66;100126.97;5059445;28;20091;-80
2021/01/18 09:59:01;;;;;;;19.87;12.00;;;;;;;0.04;44.77;99991.38;5046610;23;20083;-79
2021/01/18 10:01:33;;;;;;;25.27;15.80;;;;;;;0.90;45.47;100120.72;5054340;28;20033;-81
2021/01/18 10:04:04;;;;;;;25.98;16.80;;;;;;;0.85;45.06;100095.94;5018175;28;20105;-79
2021/01/18 10:06:38;;;;;;;19.97;12.03;;;;;;;1.12;44.58;100109.69;5020127;28;20106;-77
2021/01/18 10:09:21;;;;;;;23.27;15.27;;;;;;;1.17;43.74;100102.41;5057186;23;20041;-78
2021/01/18 10:11:51;;;;;;;17.27;12.03;;;;;;;0.94;43.85;100077.13;5056405;23;20057;-79
2021/01/18 10:14:19;;;;;;;24.10;15.57;;;;;;;0.53;43.74;100026.16;5033754;28;20064;-78
2021/01/18 10:17:04;;;;;;;20.73;12.87;;;;;;;1.08;43.06;100095.22;5049011;23;20076;-78
2021/01/18 10:19:33;;;;;;;21.57;13.60;;;;;;;1.15;44.02;100085.25;5038733;28;20041;-83
2021/01/18 10:22:01;;;;;;;42.93;23.87;;;;;;;1.19;43.68;100087.53;5077051;23;20041;-79
2021/01/18 10:27:09;;;;;;;20.33;12.23;;;;;;;1.34;42.15;100071.81;5031448;28;20054;-79
2021/01/18 10:29:43;;;;;;;20.30;11.73;;;;;;;-1.43;43.06;99617.25;5037893;23;20049;-80
2021/01/18 10:32:36;;;;;;;24.07;14.60;;;;;;;-0.14;40.69;99854.06;5024623;23;20459;-80
2021/01/18 10:35:30;;;;;;;20.83;13.17;;;;;;;1.30;41.78;100020.94;5058887;23;20041;-78
2021/01/18 10:38:26;;;;;;;22.83;14.03;;;;;;;-1.79;40.24;99563.50;5050287;23;21142;-85
2021/01/18 10:43:50;;;;;;;21.07;12.10;;;;;;;1.51;42.14;100042.88;5123320;23;20068;-77
2021/01/18 10:46:28;;;;;;;18.70;11.80;;;;;;;1.51;40.20;100043.69;5031674;23;20072;-80
2021/01/18 10:54:04;;;;;;;;;;;;;;;1.56;41.97;100025.16;5042083;23;20387;-77
2021/01/18 10:56:35;;;;;;;22.07;13.77;;;;;;;1.47;42.87;99974.56;5056304;23;19952;-78
2021/01/18 11:02:21;;;;;;;22.40;14.00;;;;;;;1.27;41.64;99920.53;5070526;23;20053;-79
2021/01/18 11:05:09;;;;;;;20.63;14.47;;;;;;;1.84;41.17;100018.81;5062453;23;20061;-82
2021/01/18 11:15:50;;;;;;;23.13;14.63;;;;;;;1.71;41.30;100011.03;5029513;26;20054;-82
2021/01/18 11:18:21;;;;;;;19.02;12.88;;;;;;;1.69;42.51;99997.31;5059348;23;20121;-79
2021/01/18 11:25:56;;;;;;;20.87;13.10;;;;;;;1.44;41.85;99963.56;5052030;28;20061;-80
2021/01/18 11:33:25;;;;;;;25.37;17.43;;;;;;;-1.12;42.17;99556.44;4097890;23;20045;-80
2021/01/18 11:40:55;;;;;;;17.37;10.70;;;;;;;1.83;40.53;99996.31;5058061;23;20053;-82
2021/01/18 11:45:49;;;;;;;20.27;12.50;;;;;;;0.29;41.70;99768.09;5069062;23;20379;-79
2021/01/18 11:48:14;;;;;;;20.13;12.63;;;;;;;-1.23;40.64;99577.06;5066067;23;20133;-80
2021/01/18 11:50:40;;;;;;;20.47;11.33;;;;;;;-1.06;40.77;99575.94;5053672;28;20017;-83
2021/01/18 11:53:09;;;;;;;13.27;9.47;;;;;;;-1.24;41.12;99574.59;5054625;28;20036;-80
2021/01/18 11:55:38;;;;;;;27.10;16.40;;;;;;;1.71;40.85;99986.78;5056254;28;20020;-80
2021/01/18 11:58:08;;;;;;;26.60;15.07;;;;;;;1.82;40.88;99986.84;5066703;28;20013;-79
2021/01/18 12:00:38;;;;;;;18.53;11.60;;;;;;;1.84;39.99;99987.56;5038110;28;20417;-79
2021/01/18 12:03:05;;;;;;;13.73;9.37;;;;;;;0.54;40.27;99775.81;5067401;23;20056;-81
2021/01/18 12:10:38;;;;;;;12.43;9.10;;;;;;;1.69;39.73;99942.66;5050493;28;20061;-81
2021/01/18 12:13:07;;;;;;;11.40;7.57;;;;;;;1.41;40.29;99917.78;5057817;28;20055;-86
2021/01/18 12:15:34;;;;;;;12.67;8.00;;;;;;;1.75;39.59;99963.03;5055072;28;20029;-78
2021/01/18 12:18:00;;;;;;;15.50;9.53;;;;;;;1.41;39.93;99904.75;5073697;23;20077;-83
2021/01/18 12:20:26;;;;;;;13.70;8.37;;;;;;;1.95;39.95;99986.78;5050500;28;20079;-78
2021/01/18 12:22:53;;;;;;;13.67;9.83;;;;;;;1.22;39.87;99868.84;5049017;28;20029;-77
2021/01/18 12:25:26;;;;;;;13.53;9.23;;;;;;;1.92;39.74;99977.41;5052224;23;20059;-84
2021/01/18 12:27:54;;;;;;;17.33;11.73;;;;;;;1.90;39.39;99977.53;5027705;23;20046;-79
2021/01/18 12:30:24;;;;;;;13.73;9.20;;;;;;;0.72;39.89;99799.66;5049880;23;20033;-83
2021/01/18 12:32:50;;;;;;;13.33;9.43;;;;;;;1.97;39.98;99977.06;5066269;23;20052;-80
2021/01/18 12:35:16;;;;;;;18.57;10.90;;;;;;;2.01;39.63;99968.94;5053889;23;20599;-82
2021/01/18 12:37:43;;;;;;;17.83;10.67;;;;;;;0.93;39.86;99797.31;5056498;23;20050;-81
2021/01/18 12:40:09;;;;;;;15.47;9.23;;;;;;;1.96;39.58;99970.22;5049980;28;20033;-81
2021/01/18 12:42:42;;;;;;;13.27;8.97;;;;;;;1.72;39.38;99963.25;5023606;28;20037;-76
2021/01/18 12:45:10;;;;;;;21.97;13.93;;;;;;;2.01;39.34;99981.94;5039819;28;20071;-77
2021/01/18 12:47:35;;;;;;;14.60;10.47;;;;;;;1.92;39.88;99957.41;5020072;28;20029;-77